sensor_id;sensor_type;location;lat;lon;timestamp;pressure;altitude;pressure_sealevel;temperature;humidity
17072;BME280;7731;50.720;6.912;2022-12-24T00:00:13;99310.94;;;9.52;100.00
17072;BME280;7731;50.720;6.912;2022-12-24T00:02:44;99304.19;;;9.51;100.00
17072;BME280;7731;50.720;6.912;2022-12-24T00:05:14;99315.34;;;9.50;100.00
17072;BME280;7731;50.720;6.912;2022-12-24T00:07:47;99308.91;;;9.42;100.00
17072;BME280;7731;50.720;6.912;2022-12-24T00:10:17;99319.72;;;9.47;100.00
17072;BME280;7731;50.720;6.912;2022-12-24T00:12:47;99313.69;;;9.48;100.00
17072;BME280;7731;50.720;6.912;2022-12-24T00:15:18;99313.13;;;9.43;100.00
17072;BME280;7731;50.720;6.912;2022-12-24T00:17:48;99317.09;;;9.49;100.00
17072;BME280;7731;50.720;6.912;2022-12-24T00:20:18;99322.38;;;9.46;100.00
17072;BME280;7731;50.720;6.912;2022-12-24T00:22:53;99324.09;;;9.31;100.00
17072;BME280;7731;50.720;6.912;2022-12-24T00:25:23;99324.53;;;9.23;100.00
17072;BME280;7731;50.720;6.912;2022-12-24T00:27:53;99327.00;;;9.25;100.00
17072;BME280;7731;50.720;6.912;2022-12-24T00:30:24;99335.28;;;9.44;100.00
17072;BME280;7731;50.720;6.912;2022-12-24T00:32:54;99329.41;;;9.42;100.00
17072;BME280;7731;50.720;6.912;2022-12-24T00:35:24;99322.00;;;9.38;100.00
17072;BME280;7731;50.720;6.912;2022-12-24T00:37:57;99324.81;;;9.33;100.00
17072;BME280;7731;50.720;6.912;2022-12-24T00:40:28;99320.81;;;9.43;100.00
17072;BME280;7731;50.720;6.912;2022-12-24T00:42:58;99326.59;;;9.47;100.00
17072;BME280;7731;50.720;6.912;2022-12-24T00:45:28;99336.41;;;9.55;100.00
17072;BME280;7731;50.720;6.912;2022-12-24T00:47:58;99339.09;;;9.68;100.00
17072;BME280;7731;50.720;6.912;2022-12-24T00:50:29;99332.41;;;9.65;100.00
17072;BME280;7731;50.720;6.912;2022-12-24T00:53:01;99331.75;;;9.61;100.00
17072;BME280;7731;50.720;6.912;2022-12-24T00:55:32;99340.09;;;9.65;100.00
17072;BME280;7731;50.720;6.912;2022-12-24T00:58:02;99348.91;;;9.90;100.00
17072;BME280;7731;50.720;6.912;2022-12-24T01:00:32;99340.44;;;9.73;100.00
17072;BME280;7731;50.720;6.912;2022-12-24T01:03:05;99347.34;;;9.73;100.00
17072;BME280;7731;50.720;6.912;2022-12-24T01:05:35;99347.41;;;9.71;100.00
17072;BME280;7731;50.720;6.912;2022-12-24T01:08:07;99355.13;;;9.71;100.00
17072;BME280;7731;50.720;6.912;2022-12-24T01:10:37;99363.28;;;9.78;100.00
17072;BME280;7731;50.720;6.912;2022-12-24T01:13:07;99368.84;;;9.70;100.00
17072;BME280;7731;50.720;6.912;2022-12-24T01:15:37;99378.38;;;9.68;100.00
17072;BME280;7731;50.720;6.912;2022-12-24T01:18:08;99384.63;;;9.78;100.00
17072;BME280;7731;50.720;6.912;2022-12-24T01:20:38;99386.34;;;9.78;100.00
17072;BME280;7731;50.720;6.912;2022-12-24T01:23:11;99388.91;;;9.78;100.00
17072;BME280;7731;50.720;6.912;2022-12-24T01:25:42;99384.91;;;9.74;100.00
17072;BME280;7731;50.720;6.912;2022-12-24T01:28:12;99399.94;;;9.80;100.00
17072;BME280;7731;50.720;6.912;2022-12-24T01:30:43;99391.41;;;9.79;100.00
17072;BME280;7731;50.720;6.912;2022-12-24T01:33:13;99394.91;;;9.93;100.00
17072;BME280;7731;50.720;6.912;2022-12-24T01:35:43;99393.81;;;9.97;100.00
17072;BME280;7731;50.720;6.912;2022-12-24T01:38:16;99399.84;;;9.81;100.00
17072;BME280;7731;50.720;6.912;2022-12-24T01:40:48;99399.84;;;9.81;100.00
17072;BME280;7731;50.720;6.912;2022-12-24T01:43:32;99403.13;;;9.69;100.00
17072;BME280;7731;50.720;6.912;2022-12-24T01:46:03;99399.44;;;9.73;100.00
17072;BME280;7731;50.720;6.912;2022-12-24T01:48:43;99415.16;;;9.83;100.00
17072;BME280;7731;50.720;6.912;2022-12-24T01:51:21;99407.13;;;9.73;100.00
17072;BME280;7731;50.720;6.912;2022-12-24T01:54:00;99411.72;;;9.68;100.00
17072;BME280;7731;50.720;6.912;2022-12-24T01:56:37;99403.81;;;9.57;100.00
17072;BME280;7731;50.720;6.912;2022-12-24T01:59:14;99412.97;;;9.61;100.00
17072;BME280;7731;50.720;6.912;2022-12-24T02:01:45;99405.81;;;9.52;100.00
17072;BME280;7731;50.720;6.912;2022-12-24T02:04:27;99408.19;;;9.55;100.00
17072;BME280;7731;50.720;6.912;2022-12-24T02:06:59;99411.47;;;9.42;100.00
17072;BME280;7731;50.720;6.912;2022-12-24T02:09:34;99410.22;;;9.50;100.00
17072;BME280;7731;50.720;6.912;2022-12-24T02:12:06;99414.56;;;9.47;100.00
17072;BME280;7731;50.720;6.912;2022-12-24T02:14:38;99426.09;;;9.40;100.00
17072;BME280;7731;50.720;6.912;2022-12-24T02:17:20;99430.47;;;9.38;100.00
17072;BME280;7731;50.720;6.912;2022-12-24T02:20:45;99438.28;;;9.21;100.00
17072;BME280;7731;50.720;6.912;2022-12-24T02:23:59;99429.19;;;9.31;100.00
17072;BME280;7731;50.720;6.912;2022-12-24T02:26:59;99433.16;;;9.21;100.00
17072;BME280;7731;50.720;6.912;2022-12-24T02:30:14;99429.88;;;9.19;100.00
17072;BME280;7731;50.720;6.912;2022-12-24T02:33:07;99431.66;;;9.17;100.00
17072;BME280;7731;50.720;6.912;2022-12-24T02:35:50;99438.75;;;9.27;100.00
17072;BME280;7731;50.720;6.912;2022-12-24T02:38:28;99455.91;;;9.11;100.00
17072;BME280;7731;50.720;6.912;2022-12-24T02:41:06;99457.13;;;9.20;100.00
17072;BME280;7731;50.720;6.912;2022-12-24T02:43:43;99462.09;;;9.23;100.00
17072;BME280;7731;50.720;6.912;2022-12-24T02:46:22;99464.59;;;9.08;100.00
17072;BME280;7731;50.720;6.912;2022-12-24T02:48:59;99463.41;;;9.30;100.00
17072;BME280;7731;50.720;6.912;2022-12-24T02:51:29;99470.19;;;9.31;100.00
17072;BME280;7731;50.720;6.912;2022-12-24T02:54:00;99477.72;;;9.34;100.00
17072;BME280;7731;50.720;6.912;2022-12-24T02:56:57;99486.47;;;9.30;100.00
17072;BME280;7731;50.720;6.912;2022-12-24T02:59:54;99488.19;;;9.45;100.00
17072;BME280;7731;50.720;6.912;2022-12-24T03:02:46;99485.06;;;9.40;100.00
17072;BME280;7731;50.720;6.912;2022-12-24T03:05:28;99479.19;;;9.54;100.00
17072;BME280;7731;50.720;6.912;2022-12-24T03:08:05;99488.19;;;9.45;100.00
17072;BME280;7731;50.720;6.912;2022-12-24T03:10:46;99484.75;;;9.46;100.00
17072;BME280;7731;50.720;6.912;2022-12-24T03:13:22;99495.84;;;9.31;100.00
17072;BME280;7731;50.720;6.912;2022-12-24T03:15:55;99496.31;;;9.38;100.00
17072;BME280;7731;50.720;6.912;2022-12-24T03:18:29;99488.66;;;9.22;100.00
17072;BME280;7731;50.720;6.912;2022-12-24T03:21:06;99487.53;;;9.26;100.00
17072;BME280;7731;50.720;6.912;2022-12-24T03:23:38;99492.03;;;9.06;100.00
17072;BME280;7731;50.720;6.912;2022-12-24T03:26:11;99499.22;;;9.16;100.00
17072;BME280;7731;50.720;6.912;2022-12-24T03:28:44;99495.81;;;8.99;100.00
17072;BME280;7731;50.720;6.912;2022-12-24T03:31:15;99501.34;;;9.07;100.00
17072;BME280;7731;50.720;6.912;2022-12-24T03:33:49;99504.44;;;9.14;100.00
17072;BME280;7731;50.720;6.912;2022-12-24T03:36:19;99511.03;;;9.02;100.00
17072;BME280;7731;50.720;6.912;2022-12-24T03:38:51;99509.66;;;9.13;100.00
17072;BME280;7731;50.720;6.912;2022-12-24T03:41:25;99500.13;;;9.15;100.00
17072;BME280;7731;50.720;6.912;2022-12-24T03:43:56;99509.47;;;9.16;100.00
17072;BME280;7731;50.720;6.912;2022-12-24T03:46:26;99510.44;;;9.29;100.00
17072;BME280;7731;50.720;6.912;2022-12-24T03:48:59;99500.94;;;9.15;100.00
17072;BME280;7731;50.720;6.912;2022-12-24T03:51:30;99508.06;;;9.26;100.00
17072;BME280;7731;50.720;6.912;2022-12-24T03:54:02;99501.28;;;9.25;100.00
17072;BME280;7731;50.720;6.912;2022-12-24T03:56:35;99497.47;;;9.32;100.00
17072;BME280;7731;50.720;6.912;2022-12-24T03:59:05;99511.38;;;9.28;100.00
17072;BME280;7731;50.720;6.912;2022-12-24T04:01:35;99518.47;;;9.23;100.00
17072;BME280;7731;50.720;6.912;2022-12-24T04:04:08;99514.84;;;9.27;100.00
17072;BME280;7731;50.720;6.912;2022-12-24T04:06:38;99508.47;;;9.34;100.00
17072;BME280;7731;50.720;6.912;2022-12-24T04:09:08;99523.25;;;9.29;100.00
17072;BME280;7731;50.720;6.912;2022-12-24T04:11:38;99543.03;;;9.27;100.00
17072;BME280;7731;50.720;6.912;2022-12-24T04:14:08;99524.38;;;9.25;100.00
17072;BME280;7731;50.720;6.912;2022-12-24T04:16:39;99527.00;;;9.23;100.00
17072;BME280;7731;50.720;6.912;2022-12-24T04:19:12;99545.75;;;9.08;100.00
17072;BME280;7731;50.720;6.912;2022-12-24T04:21:42;99552.66;;;8.56;100.00
17072;BME280;7731;50.720;6.912;2022-12-24T04:24:12;99554.97;;;8.79;100.00
17072;BME280;7731;50.720;6.912;2022-12-24T04:29:12;99562.66;;;8.61;100.00
17072;BME280;7731;50.720;6.912;2022-12-24T04:31:42;99553.84;;;8.67;100.00
17072;BME280;7731;50.720;6.912;2022-12-24T04:34:15;99550.16;;;8.72;100.00
17072;BME280;7731;50.720;6.912;2022-12-24T04:36:45;99560.25;;;8.58;100.00
17072;BME280;7731;50.720;6.912;2022-12-24T04:39:15;99553.03;;;8.49;100.00
17072;BME280;7731;50.720;6.912;2022-12-24T04:41:46;99556.94;;;8.38;100.00
17072;BME280;7731;50.720;6.912;2022-12-24T04:44:16;99571.50;;;8.55;100.00
17072;BME280;7731;50.720;6.912;2022-12-24T04:46:46;99564.94;;;8.50;100.00
17072;BME280;7731;50.720;6.912;2022-12-24T04:49:18;99559.16;;;8.46;100.00
17072;BME280;7731;50.720;6.912;2022-12-24T04:51:49;99555.22;;;8.39;100.00
17072;BME280;7731;50.720;6.912;2022-12-24T04:54:19;99558.66;;;8.38;100.00
17072;BME280;7731;50.720;6.912;2022-12-24T04:56:49;99554.59;;;8.34;100.00
17072;BME280;7731;50.720;6.912;2022-12-24T04:59:19;99555.28;;;8.37;100.00
17072;BME280;7731;50.720;6.912;2022-12-24T05:01:49;99558.66;;;8.38;100.00
17072;BME280;7731;50.720;6.912;2022-12-24T05:04:22;99557.53;;;8.61;100.00
17072;BME280;7731;50.720;6.912;2022-12-24T05:06:52;99565.06;;;8.82;100.00
17072;BME280;7731;50.720;6.912;2022-12-24T05:09:22;99560.13;;;8.94;100.00
17072;BME280;7731;50.720;6.912;2022-12-24T05:11:52;99565.09;;;8.98;100.00
17072;BME280;7731;50.720;6.912;2022-12-24T05:14:23;99553.41;;;8.92;100.00
17072;BME280;7731;50.720;6.912;2022-12-24T05:16:53;99572.28;;;9.07;100.00
17072;BME280;7731;50.720;6.912;2022-12-24T05:19:28;99573.03;;;9.09;100.00
17072;BME280;7731;50.720;6.912;2022-12-24T05:21:58;99573.09;;;9.07;100.00
17072;BME280;7731;50.720;6.912;2022-12-24T05:24:41;99577.50;;;9.05;100.00
17072;BME280;7731;50.720;6.912;2022-12-24T05:27:24;99575.81;;;9.04;100.00
17072;BME280;7731;50.720;6.912;2022-12-24T05:29:54;99586.44;;;9.14;100.00
17072;BME280;7731;50.720;6.912;2022-12-24T05:32:24;99588.38;;;8.93;100.00
17072;BME280;7731;50.720;6.912;2022-12-24T05:34:57;99594.41;;;8.92;100.00
17072;BME280;7731;50.720;6.912;2022-12-24T05:37:27;99598.63;;;8.93;100.00
17072;BME280;7731;50.720;6.912;2022-12-24T05:39:57;99589.88;;;8.97;100.00
17072;BME280;7731;50.720;6.912;2022-12-24T05:42:28;99592.72;;;9.08;100.00
17072;BME280;7731;50.720;6.912;2022-12-24T05:44:59;99594.47;;;8.90;100.00
17072;BME280;7731;50.720;6.912;2022-12-24T05:47:32;99587.97;;;8.67;100.00
17072;BME280;7731;50.720;6.912;2022-12-24T05:50:12;99595.25;;;8.75;100.00
17072;BME280;7731;50.720;6.912;2022-12-24T05:52:42;99599.31;;;8.79;100.00
17072;BME280;7731;50.720;6.912;2022-12-24T05:55:12;99607.81;;;8.80;100.00
17072;BME280;7731;50.720;6.912;2022-12-24T05:57:42;99603.88;;;8.74;100.00
17072;BME280;7731;50.720;6.912;2022-12-24T06:00:14;99603.91;;;8.90;100.00
17072;BME280;7731;50.720;6.912;2022-12-24T06:02:45;99601.91;;;8.95;100.00
17072;BME280;7731;50.720;6.912;2022-12-24T06:05:18;99597.88;;;8.91;100.00
17072;BME280;7731;50.720;6.912;2022-12-24T06:07:49;99602.94;;;8.92;100.00
17072;BME280;7731;50.720;6.912;2022-12-24T06:10:19;99602.94;;;8.92;100.00
17072;BME280;7731;50.720;6.912;2022-12-24T06:12:49;99604.06;;;8.87;100.00
17072;BME280;7731;50.720;6.912;2022-12-24T06:15:19;99594.69;;;9.03;100.00
17072;BME280;7731;50.720;6.912;2022-12-24T06:17:50;99598.16;;;9.02;100.00
17072;BME280;7731;50.720;6.912;2022-12-24T06:20:23;99605.34;;;8.96;100.00
17072;BME280;7731;50.720;6.912;2022-12-24T06:22:53;99597.28;;;8.86;100.00
17072;BME280;7731;50.720;6.912;2022-12-24T06:25:23;99607.66;;;9.00;100.00
17072;BME280;7731;50.720;6.912;2022-12-24T06:27:54;99609.53;;;8.97;100.00
17072;BME280;7731;50.720;6.912;2022-12-24T06:30:26;99607.38;;;8.89;100.00
17072;BME280;7731;50.720;6.912;2022-12-24T06:32:58;99615.50;;;8.97;100.00
17072;BME280;7731;50.720;6.912;2022-12-24T06:35:34;99621.94;;;9.04;100.00
17072;BME280;7731;50.720;6.912;2022-12-24T06:38:04;99625.06;;;8.93;100.00
17072;BME280;7731;50.720;6.912;2022-12-24T06:40:36;99635.22;;;8.95;100.00
17072;BME280;7731;50.720;6.912;2022-12-24T06:43:07;99637.31;;;9.04;100.00
17072;BME280;7731;50.720;6.912;2022-12-24T06:45:37;99639.88;;;9.04;100.00
17072;BME280;7731;50.720;6.912;2022-12-24T06:48:08;99645.31;;;9.16;100.00
17072;BME280;7731;50.720;6.912;2022-12-24T06:50:41;99642.13;;;9.10;100.00
17072;BME280;7731;50.720;6.912;2022-12-24T06:53:12;99655.41;;;9.01;100.00
17072;BME280;7731;50.720;6.912;2022-12-24T06:55:51;99652.69;;;9.04;100.00
17072;BME280;7731;50.720;6.912;2022-12-24T06:58:21;99659.56;;;9.04;100.00
17072;BME280;7731;50.720;6.912;2022-12-24T07:00:51;99663.19;;;9.00;100.00
17072;BME280;7731;50.720;6.912;2022-12-24T07:03:22;99663.25;;;8.98;100.00
17072;BME280;7731;50.720;6.912;2022-12-24T07:05:58;99663.56;;;8.92;100.00
17072;BME280;7731;50.720;6.912;2022-12-24T07:08:29;99661.63;;;8.80;100.00
17072;BME280;7731;50.720;6.912;2022-12-24T07:11:03;99658.38;;;8.76;100.00
17072;BME280;7731;50.720;6.912;2022-12-24T07:13:34;99669.31;;;8.80;100.00
17072;BME280;7731;50.720;6.912;2022-12-24T07:16:05;99663.16;;;8.66;100.00
17072;BME280;7731;50.720;6.912;2022-12-24T07:18:36;99671.72;;;8.65;100.00
17072;BME280;7731;50.720;6.912;2022-12-24T07:21:09;99684.09;;;8.57;100.00
17072;BME280;7731;50.720;6.912;2022-12-24T07:23:39;99677.50;;;8.69;100.00
17072;BME280;7731;50.720;6.912;2022-12-24T07:26:10;99680.31;;;8.64;100.00
17072;BME280;7731;50.720;6.912;2022-12-24T07:28:40;99690.69;;;8.61;100.00
17072;BME280;7731;50.720;6.912;2022-12-24T07:31:10;99695.97;;;8.58;100.00
17072;BME280;7731;50.720;6.912;2022-12-24T07:33:43;99704.41;;;8.60;100.00
17072;BME280;7731;50.720;6.912;2022-12-24T07:36:19;99699.00;;;8.66;100.00
17072;BME280;7731;50.720;6.912;2022-12-24T07:38:50;99707.41;;;8.86;100.00
17072;BME280;7731;50.720;6.912;2022-12-24T07:41:21;99718.41;;;8.70;100.00
17072;BME280;7731;50.720;6.912;2022-12-24T07:43:51;99715.41;;;8.80;100.00
17072;BME280;7731;50.720;6.912;2022-12-24T07:46:21;99719.41;;;8.85;100.00
17072;BME280;7731;50.720;6.912;2022-12-24T07:48:51;99722.66;;;8.71;100.00
17072;BME280;7731;50.720;6.912;2022-12-24T07:51:24;99719.50;;;8.84;100.00
17072;BME280;7731;50.720;6.912;2022-12-24T07:53:57;99718.19;;;8.75;100.00
17072;BME280;7731;50.720;6.912;2022-12-24T07:56:28;99715.66;;;8.92;100.00
17072;BME280;7731;50.720;6.912;2022-12-24T07:59:00;99716.03;;;8.85;100.00
17072;BME280;7731;50.720;6.912;2022-12-24T08:01:30;99726.88;;;8.90;100.00
17072;BME280;7731;50.720;6.912;2022-12-24T08:04:01;99726.88;;;8.90;100.00
17072;BME280;7731;50.720;6.912;2022-12-24T08:06:33;99737.13;;;8.90;100.00
17072;BME280;7731;50.720;6.912;2022-12-24T08:09:05;99737.72;;;8.95;100.00
17072;BME280;7731;50.720;6.912;2022-12-24T08:11:36;99746.31;;;9.11;100.00
17072;BME280;7731;50.720;6.912;2022-12-24T08:14:14;99740.88;;;9.18;100.00
17072;BME280;7731;50.720;6.912;2022-12-24T08:16:44;99736.63;;;9.34;100.00
17072;BME280;7731;50.720;6.912;2022-12-24T08:19:15;99750.28;;;9.52;100.00
17072;BME280;7731;50.720;6.912;2022-12-24T08:21:48;99744.13;;;9.55;100.00
17072;BME280;7731;50.720;6.912;2022-12-24T08:24:18;99743.47;;;9.51;100.00
17072;BME280;7731;50.720;6.912;2022-12-24T08:26:48;99742.19;;;9.60;100.00
17072;BME280;7731;50.720;6.912;2022-12-24T08:29:21;99752.78;;;9.86;100.00
17072;BME280;7731;50.720;6.912;2022-12-24T08:31:51;99749.75;;;9.95;100.00
17072;BME280;7731;50.720;6.912;2022-12-24T08:34:21;99759.97;;;10.12;100.00
17072;BME280;7731;50.720;6.912;2022-12-24T08:36:54;99759.28;;;10.09;100.00
17072;BME280;7731;50.720;6.912;2022-12-24T08:39:24;99765.91;;;10.29;100.00
17072;BME280;7731;50.720;6.912;2022-12-24T08:41:54;99765.59;;;10.35;100.00
17072;BME280;7731;50.720;6.912;2022-12-24T08:44:25;99766.50;;;10.66;100.00
17072;BME280;7731;50.720;6.912;2022-12-24T08:46:55;99779.31;;;10.82;100.00
17072;BME280;7731;50.720;6.912;2022-12-24T08:49:25;99779.84;;;11.03;100.00
17072;BME280;7731;50.720;6.912;2022-12-24T08:51:59;99778.63;;;10.94;100.00
17072;BME280;7731;50.720;6.912;2022-12-24T08:54:29;99768.31;;;11.24;100.00
17072;BME280;7731;50.720;6.912;2022-12-24T08:56:59;99770.00;;;11.83;100.00
17072;BME280;7731;50.720;6.912;2022-12-24T08:59:30;99771.66;;;11.70;100.00
17072;BME280;7731;50.720;6.912;2022-12-24T09:02:00;99777.53;;;12.15;98.03
17072;BME280;7731;50.720;6.912;2022-12-24T09:04:30;99778.69;;;11.96;100.00
17072;BME280;7731;50.720;6.912;2022-12-24T09:07:03;99781.06;;;12.00;98.31
17072;BME280;7731;50.720;6.912;2022-12-24T09:09:34;99782.50;;;11.60;100.00
17072;BME280;7731;50.720;6.912;2022-12-24T09:12:07;99779.38;;;11.55;100.00
17072;BME280;7731;50.720;6.912;2022-12-24T09:14:37;99792.72;;;12.05;99.69
17072;BME280;7731;50.720;6.912;2022-12-24T09:17:07;99788.84;;;13.34;92.67
17072;BME280;7731;50.720;6.912;2022-12-24T09:19:37;99801.88;;;13.84;88.63
17072;BME280;7731;50.720;6.912;2022-12-24T09:22:10;99800.00;;;14.36;82.97
17072;BME280;7731;50.720;6.912;2022-12-24T09:24:40;99791.34;;;14.61;82.57
17072;BME280;7731;50.720;6.912;2022-12-24T09:27:10;99814.63;;;14.11;82.29
17072;BME280;7731;50.720;6.912;2022-12-24T09:29:42;99818.41;;;13.03;88.79
17072;BME280;7731;50.720;6.912;2022-12-24T09:32:12;99827.88;;;13.02;91.77
17072;BME280;7731;50.720;6.912;2022-12-24T09:34:43;99838.91;;;12.50;92.11
17072;BME280;7731;50.720;6.912;2022-12-24T09:37:15;99838.22;;;12.33;94.19
17072;BME280;7731;50.720;6.912;2022-12-24T09:39:46;99841.16;;;11.84;95.67
17072;BME280;7731;50.720;6.912;2022-12-24T09:42:32;99843.91;;;11.81;99.21
17072;BME280;7731;50.720;6.912;2022-12-24T09:45:15;99837.47;;;11.59;100.00
17072;BME280;7731;50.720;6.912;2022-12-24T09:47:52;99844.78;;;11.51;100.00
17072;BME280;7731;50.720;6.912;2022-12-24T09:50:37;99846.31;;;12.13;98.31
17072;BME280;7731;50.720;6.912;2022-12-24T09:53:19;99842.44;;;11.77;98.62
17072;BME280;7731;50.720;6.912;2022-12-24T09:55:56;99847.75;;;11.59;99.91
17072;BME280;7731;50.720;6.912;2022-12-24T09:58:34;99854.25;;;11.51;100.00
17072;BME280;7731;50.720;6.912;2022-12-24T10:01:08;99868.47;;;11.42;100.00
17072;BME280;7731;50.720;6.912;2022-12-24T10:03:40;99867.94;;;11.21;100.00
17072;BME280;7731;50.720;6.912;2022-12-24T10:06:15;99867.06;;;11.36;100.00
17072;BME280;7731;50.720;6.912;2022-12-24T10:09:11;99851.41;;;11.55;100.00
17072;BME280;7731;50.720;6.912;2022-12-24T10:11:55;99870.50;;;11.51;100.00
17072;BME280;7731;50.720;6.912;2022-12-24T10:14:44;99861.25;;;11.18;100.00
17072;BME280;7731;50.720;6.912;2022-12-24T10:17:38;99871.75;;;11.30;100.00
17072;BME280;7731;50.720;6.912;2022-12-24T10:20:31;99876.94;;;11.14;100.00
17072;BME280;7731;50.720;6.912;2022-12-24T10:23:15;99874.25;;;11.46;100.00
17072;BME280;7731;50.720;6.912;2022-12-24T10:26:02;99876.50;;;11.21;100.00
17072;BME280;7731;50.720;6.912;2022-12-24T10:28:44;99861.88;;;11.52;100.00
17072;BME280;7731;50.720;6.912;2022-12-24T10:31:21;99867.84;;;11.53;100.00
17072;BME280;7731;50.720;6.912;2022-12-24T10:34:00;99873.81;;;11.53;100.00
17072;BME280;7731;50.720;6.912;2022-12-24T10:36:31;99876.28;;;11.55;100.00
17072;BME280;7731;50.720;6.912;2022-12-24T10:39:01;99874.22;;;11.61;100.00
17072;BME280;7731;50.720;6.912;2022-12-24T10:41:36;99877.63;;;11.32;100.00
17072;BME280;7731;50.720;6.912;2022-12-24T10:44:14;99876.88;;;11.60;100.00
17072;BME280;7731;50.720;6.912;2022-12-24T10:46:46;99883.81;;;11.43;100.00
17072;BME280;7731;50.720;6.912;2022-12-24T10:49:21;99878.94;;;11.39;100.00
17072;BME280;7731;50.720;6.912;2022-12-24T10:52:01;99876.06;;;11.29;100.00
17072;BME280;7731;50.720;6.912;2022-12-24T10:54:33;99872.72;;;10.97;100.00
17072;BME280;7731;50.720;6.912;2022-12-24T10:57:25;99880.72;;;11.22;100.00
17072;BME280;7731;50.720;6.912;2022-12-24T10:59:56;99875.72;;;11.19;100.00
17072;BME280;7731;50.720;6.912;2022-12-24T11:02:32;99875.00;;;11.48;100.00
17072;BME280;7731;50.720;6.912;2022-12-24T11:05:27;99863.75;;;11.34;100.00
17072;BME280;7731;50.720;6.912;2022-12-24T11:08:04;99871.91;;;11.26;100.00
17072;BME280;7731;50.720;6.912;2022-12-24T11:10:39;99872.94;;;11.08;100.00
17072;BME280;7731;50.720;6.912;2022-12-24T11:13:24;99866.84;;;11.55;100.00
17072;BME280;7731;50.720;6.912;2022-12-24T11:16:10;99868.72;;;11.68;100.00
17072;BME280;7731;50.720;6.912;2022-12-24T11:18:49;99864.34;;;11.99;99.33
17072;BME280;7731;50.720;6.912;2022-12-24T11:21:24;99866.66;;;12.03;99.09
17072;BME280;7731;50.720;6.912;2022-12-24T11:23:58;99857.25;;;12.31;97.38
17072;BME280;7731;50.720;6.912;2022-12-24T11:26:30;99856.59;;;12.42;96.50
17072;BME280;7731;50.720;6.912;2022-12-24T11:29:15;99852.97;;;12.59;96.33
17072;BME280;7731;50.720;6.912;2022-12-24T11:31:49;99849.59;;;12.44;96.65
17072;BME280;7731;50.720;6.912;2022-12-24T11:34:28;99847.47;;;12.50;97.97
17072;BME280;7731;50.720;6.912;2022-12-24T11:37:13;99857.34;;;12.29;97.94
17072;BME280;7731;50.720;6.912;2022-12-24T11:39:48;99859.41;;;12.24;96.88
17072;BME280;7731;50.720;6.912;2022-12-24T11:42:30;99863.13;;;11.75;99.49
17072;BME280;7731;50.720;6.912;2022-12-24T11:45:20;99869.03;;;11.47;100.00
17072;BME280;7731;50.720;6.912;2022-12-24T11:47:52;99862.25;;;11.46;100.00
17072;BME280;7731;50.720;6.912;2022-12-24T11:50:28;99862.69;;;11.53;100.00
17072;BME280;7731;50.720;6.912;2022-12-24T11:53:06;99867.69;;;11.25;100.00
17072;BME280;7731;50.720;6.912;2022-12-24T11:55:46;99875.09;;;11.16;100.00
17072;BME280;7731;50.720;6.912;2022-12-24T11:58:26;99875.38;;;11.25;100.00
17072;BME280;7731;50.720;6.912;2022-12-24T12:01:09;99873.41;;;11.31;100.00
17072;BME280;7731;50.720;6.912;2022-12-24T12:03:47;99870.72;;;11.63;100.00
17072;BME280;7731;50.720;6.912;2022-12-24T12:06:36;99868.72;;;11.82;100.00
17072;BME280;7731;50.720;6.912;2022-12-24T12:09:15;99869.50;;;12.13;99.47
17072;BME280;7731;50.720;6.912;2022-12-24T12:11:52;99866.50;;;11.61;100.00
17072;BME280;7731;50.720;6.912;2022-12-24T12:14:30;99872.63;;;12.04;99.96
17072;BME280;7731;50.720;6.912;2022-12-24T12:17:23;99874.09;;;12.22;98.16
17072;BME280;7731;50.720;6.912;2022-12-24T12:20:03;99876.50;;;11.96;98.03
17072;BME280;7731;50.720;6.912;2022-12-24T12:22:44;99883.97;;;11.85;99.72
17072;BME280;7731;50.720;6.912;2022-12-24T12:25:22;99886.81;;;11.66;100.00
17072;BME280;7731;50.720;6.912;2022-12-24T12:27:57;99884.56;;;11.90;100.00
17072;BME280;7731;50.720;6.912;2022-12-24T12:30:31;99884.69;;;11.73;100.00
17072;BME280;7731;50.720;6.912;2022-12-24T12:33:19;99879.63;;;12.02;99.18
17072;BME280;7731;50.720;6.912;2022-12-24T12:35:55;99874.63;;;12.42;97.64
17072;BME280;7731;50.720;6.912;2022-12-24T12:38:28;99882.75;;;12.36;95.19
17072;BME280;7731;50.720;6.912;2022-12-24T12:41:11;99882.00;;;12.19;96.55
17072;BME280;7731;50.720;6.912;2022-12-24T12:47:22;99874.06;;;12.51;95.00
17072;BME280;7731;50.720;6.912;2022-12-24T12:50:15;99870.19;;;12.44;95.41
17072;BME280;7731;50.720;6.912;2022-12-24T12:53:19;99880.31;;;12.61;94.77
17072;BME280;7731;50.720;6.912;2022-12-24T12:56:03;99885.09;;;12.53;92.84
17072;BME280;7731;50.720;6.912;2022-12-24T12:58:44;99876.88;;;13.02;90.81
17072;BME280;7731;50.720;6.912;2022-12-24T13:01:28;99876.44;;;13.23;89.61
17072;BME280;7731;50.720;6.912;2022-12-24T13:04:56;99874.53;;;12.85;89.61
17072;BME280;7731;50.720;6.912;2022-12-24T13:08:11;99875.81;;;12.50;91.84
17072;BME280;7731;50.720;6.912;2022-12-24T13:11:12;99881.75;;;12.80;91.11
17072;BME280;7731;50.720;6.912;2022-12-24T13:17:52;99893.63;;;12.12;95.23
17072;BME280;7731;50.720;6.912;2022-12-24T13:20:28;99891.03;;;12.26;95.37
17072;BME280;7731;50.720;6.912;2022-12-24T13:23:11;99899.75;;;11.95;96.73
17072;BME280;7731;50.720;6.912;2022-12-24T13:25:46;99899.69;;;12.11;96.78
17072;BME280;7731;50.720;6.912;2022-12-24T13:28:34;99898.34;;;11.89;97.83
17072;BME280;7731;50.720;6.912;2022-12-24T13:31:23;99904.06;;;11.94;98.52
17072;BME280;7731;50.720;6.912;2022-12-24T13:37:12;99916.59;;;12.15;97.01
17072;BME280;7731;50.720;6.912;2022-12-24T13:40:16;99914.94;;;12.28;95.79
17072;BME280;7731;50.720;6.912;2022-12-24T13:43:06;99921.50;;;11.89;97.67
17072;BME280;7731;50.720;6.912;2022-12-24T13:45:50;99915.56;;;12.18;97.20
17072;BME280;7731;50.720;6.912;2022-12-24T13:48:33;99920.28;;;12.11;95.96
17072;BME280;7731;50.720;6.912;2022-12-24T13:51:19;99925.97;;;12.02;96.33
17072;BME280;7731;50.720;6.912;2022-12-24T13:53:58;99919.84;;;11.88;97.68
17072;BME280;7731;50.720;6.912;2022-12-24T13:56:35;99921.75;;;11.70;100.00
17072;BME280;7731;50.720;6.912;2022-12-24T13:59:23;99935.78;;;11.34;100.00
17072;BME280;7731;50.720;6.912;2022-12-24T14:02:05;99931.06;;;11.26;100.00
17072;BME280;7731;50.720;6.912;2022-12-24T14:04:50;99927.66;;;11.10;100.00
17072;BME280;7731;50.720;6.912;2022-12-24T14:07:21;99929.91;;;11.16;100.00